»·PEaware :: ASA935 KGEG-KSEA

ASA935 :: KGEG-KSEA

FLIGHT INFORMATION

Flight Status: Arrived
Operator:
Alaska Airlines
More flights by this operator :: More flights under this callsign
Pilot: Michael S. (20314)
Aircraft: AIRBUS A321
(A321)
More flights by this aircraft type
Origin: KGEG Spokane Intl
United States
Destination: KSEA Seattle-Tacoma Intl
United States
More flights between these airports :: More routes between these airports
Route: GEG GLASR1
File this flight plan on PilotEdge
Remarks: RMK / SIMBRIEF
Altitude:
(Current/Filed)
30,000ft
Speed:
(Current/Filed)
436kts
Departed: 02-May-21 12:02 PM
Arrived: 02-May-21 12:55 PM
Distance/Time
Traveled:
194nm/0:53
Distance/Time
To Go:
Arrived

Flight Plot

Page will automatically refresh every two minutes.

Flight plan parsing failed; only flown route is shown


Map Options




Map Legend


Flown Route
Filed Route
Departure Airport
Arrival Airport
Navaid (VOR, NDB)
Fix

Horizontal Profiles

Position Reports

Time Latitude Longitude Heading Altitude Ground
Speed
02-May-21 11:32 47.623314 -117.539811 0 2392ft 0kts
02-May-21 11:33 47.623314 -117.539811 0 2392ft 0kts
02-May-21 11:34 47.623314 -117.539811 0 2392ft 0kts
02-May-21 11:35 47.623314 -117.539811 0 2392ft 0kts
02-May-21 11:36 47.623314 -117.539811 0 2392ft 0kts
02-May-21 11:37 47.623314 -117.539811 0 2392ft 0kts
02-May-21 11:38 47.623314 -117.539811 0 2392ft 0kts
02-May-21 11:39 47.623314 -117.539811 0 2392ft 0kts
02-May-21 11:40 47.623314 -117.539811 0 2392ft 0kts
02-May-21 11:41 47.623314 -117.539811 0 2392ft 0kts
02-May-21 11:42 47.623314 -117.539811 0 2392ft 0kts
02-May-21 11:43 47.623314 -117.539811 0 2392ft 0kts
02-May-21 11:44 47.623314 -117.539811 0 2392ft 0kts
02-May-21 11:45 47.623314 -117.539811 0 2392ft 0kts
02-May-21 11:46 47.623314 -117.539811 0 2392ft 0kts
02-May-21 11:47 47.623314 -117.539811 0 2392ft 0kts
02-May-21 11:48 47.623314 -117.539811 0 2392ft 0kts
02-May-21 11:49 47.623314 -117.539811 0 2392ft 0kts
02-May-21 11:50 47.623067 -117.539940 27 2392ft 2kts
02-May-21 11:51 47.622786 -117.540660 93 2392ft 1kts
02-May-21 11:52 47.622787 -117.540692 94 2392ft 0kts
02-May-21 11:53 47.622787 -117.540692 94 2392ft 0kts
02-May-21 11:54 47.622786 -117.540660 94 2392ft 1kts
02-May-21 11:55 47.622619 -117.537869 108 2392ft 9kts
02-May-21 11:57 47.622765 -117.535050 44 2392ft 11kts
02-May-21 11:58 47.624877 -117.531888 45 2392ft 13kts
02-May-21 11:59 47.627917 -117.527278 45 2392ft 16kts
02-May-21 12:00 47.631369 -117.522122 44 2392ft 18kts
02-May-21 12:01 47.631972 -117.519584 133 2392ft 0kts
02-May-21 12:02 47.630095 -117.519971 224 2392ft 43kts
02-May-21 12:03 47.597926 -117.570374 227 4548ft 214kts
02-May-21 12:04 47.556011 -117.635945 225 6545ft 255kts
02-May-21 12:05 47.501863 -117.718574 226 9093ft 291kts
02-May-21 12:06 47.447735 -117.809068 228 11783ft 308kts
02-May-21 12:07 47.384859 -117.911380 247 13394ft 354kts
02-May-21 12:08 47.403017 -118.047688 292 14972ft 348kts
02-May-21 12:09 47.436074 -118.182560 291 15044ft 353kts
02-May-21 12:10 47.468456 -118.321181 291 17489ft 360kts
02-May-21 12:11 47.501373 -118.463828 291 19742ft 368kts
02-May-21 12:12 47.534992 -118.610494 291 21216ft 392kts
02-May-21 12:13 47.571610 -118.771839 290 22198ft 424kts
02-May-21 12:14 47.609341 -118.939405 290 23108ft 426kts
02-May-21 12:15 47.646524 -119.105612 290 23111ft 425kts
02-May-21 12:16 47.683557 -119.272412 290 23393ft 430kts
02-May-21 12:16 47.714638 -119.413568 289 25096ft 429kts
02-May-21 12:18 47.740520 -119.614854 278 27435ft 424kts
02-May-21 12:19 47.753967 -119.787698 277 29241ft 419kts
02-May-21 12:20 47.767074 -119.958617 276 30107ft 415kts
02-May-21 12:20 47.777776 -120.100522 276 30119ft 416kts
02-May-21 12:22 47.792414 -120.298338 277 29906ft 402kts
02-May-21 12:23 47.804455 -120.465089 277 28314ft 408kts
02-May-21 12:23 47.814357 -120.604527 278 25899ft 411kts
02-May-21 12:24 47.826219 -120.774669 278 22677ft 418kts
02-May-21 12:26 47.839471 -120.969670 278 20044ft 398kts
02-May-21 12:26 47.848420 -121.103897 278 18229ft 385kts
02-May-21 12:27 47.858569 -121.258883 278 16116ft 372kts
02-May-21 12:28 47.868266 -121.410066 277 13920ft 361kts
02-May-21 12:29 47.877215 -121.553170 277 12599ft 325kts
02-May-21 12:30 47.884654 -121.678255 270 12089ft 294kts
02-May-21 12:31 47.836185 -121.772135 221 12010ft 297kts
02-May-21 12:32 47.774910 -121.854525 222 11998ft 289kts
02-May-21 12:33 47.728240 -121.936999 267 11957ft 255kts
02-May-21 12:34 47.764711 -122.020920 315 10545ft 250kts
02-May-21 12:35 47.812657 -122.094141 315 9260ft 245kts
02-May-21 12:36 47.859702 -122.166095 315 8011ft 240kts
02-May-21 12:37 47.905737 -122.236344 315 6794ft 234kts
02-May-21 12:38 47.950602 -122.304815 315 6008ft 231kts
02-May-21 12:39 47.993273 -122.369852 315 6003ft 209kts
02-May-21 12:40 48.034771 -122.432936 315 6005ft 213kts
02-May-21 12:41 48.074903 -122.498106 290 5992ft 214kts
02-May-21 12:42 48.033284 -122.558648 168 6017ft 272kts
02-May-21 12:43 47.974523 -122.488397 135 5115ft 285kts
02-May-21 12:44 47.920506 -122.409966 135 3119ft 266kts
02-May-21 12:45 47.868852 -122.334410 135 3006ft 260kts
02-May-21 12:46 47.806994 -122.279807 157 3005ft 260kts
02-May-21 12:47 47.736446 -122.282396 188 2998ft 245kts
02-May-21 12:48 47.677365 -122.295618 201 2982ft 186kts
02-May-21 12:49 47.626256 -122.306054 182 3007ft 187kts
02-May-21 12:50 47.579366 -122.306685 181 2726ft 153kts
02-May-21 12:51 47.539072 -122.307074 181 1935ft 142kts
02-May-21 12:52 47.499912 -122.307499 180 1179ft 140kts
02-May-21 12:53 47.461076 -122.307770 182 452ft 136kts
02-May-21 12:54 47.445970 -122.307379 116 442ft 8kts
02-May-21 12:55 47.445785 -122.306741 113 442ft 6kts

Navigation Log

Ident Type
Flight plan parsing failed, navigation log unavailable